This is the latest recevied weather packets stored in our database for station/object WV5G-13. If no packets are shown the sender has not sent any weather packets the latest 10 day(s).
| Time | Temp. | Humidity | Pressure | Rain* | Wind** | Luminosity | Snow |
|---|---|---|---|---|---|---|---|
| 1777580171 | 18.33° C | 37% | 1012.9 hPa | 0 mm | - | 576 W/m² | - |
| 1777579869 | 17.22° C | 38% | 1012.8 hPa | 0 mm | - | 398 W/m² | - |
| 1777579568 | 17.78° C | 37% | 1012.7 hPa | 0 mm | - | 537 W/m² | - |
| 1777579262 | 17.78° C | 36% | 1013.1 hPa | 0 mm | - | 657 W/m² | - |
| 1777578958 | 17.78° C | 37% | 1013 hPa | 0 mm | - | 764 W/m² | - |
| 1777578653 | 17.78° C | 36% | 1013 hPa | 0 mm | - | 679 W/m² | - |
| 1777578352 | 17.22° C | 38% | 1013.3 hPa | 0 mm | - | 780 W/m² | - |
| 1777578049 | 17.22° C | 37% | 1013.2 hPa | 0 mm | - | 723 W/m² | - |
| 1777577744 | 16.67° C | 36% | 1013 hPa | 0 mm | - | 756 W/m² | - |
| 1777577441 | 16.67° C | 37% | 1013.2 hPa | 0 mm | - | 768 W/m² | - |
| 1777577138 | 17.22° C | 37% | 1013.1 hPa | 0 mm | - | 714 W/m² | - |
| 1777576834 | 17.22° C | 35% | 1013.3 hPa | 0 mm | - | 825 W/m² | - |
| 1777576533 | 17.22° C | 37% | 1013.7 hPa | 0 mm | - | 676 W/m² | - |
| 1777576230 | 16.67° C | 37% | 1013.6 hPa | 0 mm | - | 587 W/m² | - |
| 1777575926 | 17.22° C | 37% | 1013.5 hPa | 0 mm | - | 640 W/m² | - |
| 1777575622 | 17.22° C | 36% | 1013.3 hPa | 0 mm | - | 917 W/m² | - |
| 1777575318 | 17.22° C | 37% | 1013.3 hPa | 0 mm | - | 1028 W/m² | - |
| 1777575014 | 17.22° C | 37% | 1013.9 hPa | 0 mm | - | 652 W/m² | - |
| 1777574710 | 16.67° C | 37% | 1014 hPa | 0 mm | - | 708 W/m² | - |
| 1777574408 | 16.67° C | 36% | 1013.9 hPa | 0 mm | - | 627 W/m² | - |
| 1777574103 | 17.22° C | 37% | 1013.6 hPa | 0 mm | - | 683 W/m² | - |
| 1777573798 | 16.67° C | 38% | 1013.8 hPa | 0 mm | - | 854 W/m² | - |
| 1777573494 | 17.78° C | 36% | 1013.9 hPa | 0 mm | - | 794 W/m² | - |
| 1777573190 | 16.11° C | 40% | 1014.1 hPa | 0 mm | - | 998 W/m² | - |
| 1777572887 | 16.67° C | 39% | 1014.2 hPa | 0 mm | - | 768 W/m² | - |
* Rain latest hour (hover to see other rain measurements)
** Current wind speed in m/s (hover to see current wind gust speed)